createdAt,value
2023-08-16T00:01:47.525Z,3.70
2023-08-16T00:04:18.568Z,3.70
2023-08-16T00:06:49.676Z,3.38
2023-08-16T00:09:21.250Z,3.53
2023-08-16T00:11:51.384Z,3.60
2023-08-16T00:14:24.842Z,3.45
2023-08-16T00:16:54.779Z,3.22
2023-08-16T00:19:25.048Z,3.53
2023-08-16T00:21:55.270Z,3.20
2023-08-16T00:24:25.298Z,3.47
2023-08-16T00:26:55.359Z,3.75
2023-08-16T00:29:27.175Z,4.13
2023-08-16T00:31:59.826Z,3.70
2023-08-16T00:34:29.771Z,3.97
2023-08-16T00:36:59.892Z,3.55
2023-08-16T00:39:30.173Z,3.50
2023-08-16T00:42:00.241Z,3.33
2023-08-16T00:44:32.615Z,3.42
2023-08-16T00:47:02.867Z,3.45
2023-08-16T00:49:33.671Z,3.08
2023-08-16T00:52:05.012Z,3.30
2023-08-16T00:54:35.380Z,3.10
2023-08-16T00:57:06.538Z,3.30
2023-08-16T00:59:39.324Z,4.18
2023-08-16T01:02:09.349Z,4.70
2023-08-16T01:04:39.456Z,6.05
2023-08-16T01:07:10.018Z,7.20
2023-08-16T01:09:40.057Z,7.28
2023-08-16T01:12:15.719Z,8.25
2023-08-16T01:14:52.638Z,8.05
2023-08-16T01:17:26.116Z,7.93
2023-08-16T01:19:59.784Z,7.38
2023-08-16T01:22:40.920Z,8.65
2023-08-16T01:25:27.784Z,7.20
2023-08-16T01:27:59.588Z,6.07
2023-08-16T01:30:30.433Z,6.65
2023-08-16T01:33:08.873Z,5.78
2023-08-16T01:35:39.489Z,6.63
2023-08-16T01:38:11.321Z,6.30
2023-08-16T01:40:44.544Z,6.43
2023-08-16T01:43:18.246Z,6.28
2023-08-16T01:45:50.360Z,6.60
2023-08-16T01:48:21.346Z,6.57
2023-08-16T01:50:51.732Z,7.07
2023-08-16T01:53:21.818Z,7.53
2023-08-16T01:55:51.683Z,7.55
2023-08-16T01:58:23.349Z,8.15
2023-08-16T02:00:53.569Z,7.70
2023-08-16T02:03:23.836Z,8.38
2023-08-16T02:05:53.818Z,8.57
2023-08-16T02:08:24.095Z,8.70
2023-08-16T02:10:54.200Z,8.32
2023-08-16T02:13:25.997Z,9.02
2023-08-16T02:16:02.672Z,8.77
2023-08-16T02:18:33.680Z,7.40
2023-08-16T02:21:03.580Z,7.90
2023-08-16T02:23:33.526Z,8.50
2023-08-16T02:26:03.659Z,8.80
2023-08-16T02:28:35.322Z,8.80
2023-08-16T02:31:08.546Z,8.43
2023-08-16T02:33:38.887Z,8.38
2023-08-16T02:36:08.862Z,8.57
2023-08-16T02:38:39.308Z,7.75
2023-08-16T02:41:09.258Z,7.28
2023-08-16T02:43:40.978Z,7.38
2023-08-16T02:46:11.168Z,7.75
2023-08-16T02:48:41.527Z,7.18
2023-08-16T02:51:11.623Z,6.22
2023-08-16T02:53:42.228Z,5.95
2023-08-16T02:56:12.313Z,5.60
2023-08-16T02:58:43.861Z,5.57
2023-08-16T03:01:14.377Z,5.63
2023-08-16T03:03:45.236Z,5.03
2023-08-16T03:06:15.658Z,5.30
2023-08-16T03:08:45.725Z,4.90
2023-08-16T03:11:16.117Z,5.05
2023-08-16T03:13:47.623Z,4.93
2023-08-16T03:16:17.720Z,4.88
2023-08-16T03:18:47.627Z,4.88
2023-08-16T03:21:17.887Z,5.07
2023-08-16T03:23:47.984Z,5.63
2023-08-16T03:26:17.884Z,5.65
2023-08-16T03:28:49.594Z,5.07
2023-08-16T03:31:19.594Z,4.78
2023-08-16T03:33:49.558Z,4.35
2023-08-16T03:36:19.651Z,5.10
2023-08-16T03:38:49.755Z,4.88
2023-08-16T03:41:19.700Z,4.45
2023-08-16T03:43:51.419Z,4.25
2023-08-16T03:46:21.879Z,4.68
2023-08-16T03:48:51.782Z,5.10
2023-08-16T03:51:21.864Z,5.30
2023-08-16T03:53:51.830Z,6.55
2023-08-16T03:56:21.973Z,6.13
2023-08-16T03:58:53.603Z,5.90
2023-08-16T04:01:24.744Z,6.40
2023-08-16T04:03:54.593Z,6.00
2023-08-16T04:06:24.622Z,5.70
2023-08-16T04:08:54.708Z,7.78
2023-08-16T04:11:24.820Z,7.45
2023-08-16T04:13:56.685Z,7.22
2023-08-16T04:16:26.813Z,6.78
2023-08-16T04:18:56.804Z,7.20
2023-08-16T04:21:27.367Z,8.82
2023-08-16T04:23:57.427Z,10.20
2023-08-16T04:26:27.805Z,9.23
2023-08-16T04:28:59.652Z,10.60
2023-08-16T04:31:30.214Z,10.05
2023-08-16T04:34:00.761Z,10.75
2023-08-16T04:36:31.842Z,9.60
2023-08-16T04:39:02.394Z,9.25
2023-08-16T04:41:32.662Z,9.77
2023-08-16T04:44:04.410Z,9.70
2023-08-16T04:46:34.486Z,9.55
2023-08-16T04:49:04.434Z,9.00
2023-08-16T04:51:34.522Z,10.20
2023-08-16T04:54:04.788Z,8.77
2023-08-16T04:56:34.905Z,9.13
2023-08-16T04:59:13.679Z,9.68
2023-08-16T05:01:44.095Z,11.05
2023-08-16T05:04:14.263Z,9.18
2023-08-16T05:06:44.695Z,11.43
2023-08-16T05:09:14.805Z,10.60
2023-08-16T05:11:44.833Z,10.65
2023-08-16T05:14:16.425Z,11.38
2023-08-16T05:16:46.557Z,11.50
2023-08-16T05:19:16.770Z,12.38
2023-08-16T05:21:47.079Z,12.95
2023-08-16T05:24:17.162Z,12.93
2023-08-16T05:26:49.154Z,13.20
2023-08-16T05:29:21.145Z,12.73
2023-08-16T05:31:51.232Z,12.85
2023-08-16T05:34:24.866Z,13.48
2023-08-16T05:36:55.917Z,13.68
2023-08-16T05:39:26.502Z,12.40
2023-08-16T05:41:56.795Z,12.48
2023-08-16T05:44:28.364Z,13.27
2023-08-16T05:46:58.513Z,13.35
2023-08-16T05:49:30.655Z,13.38
2023-08-16T05:52:03.827Z,13.13
2023-08-16T05:54:33.904Z,13.88
2023-08-16T05:57:04.179Z,13.77
2023-08-16T05:59:36.358Z,15.07
2023-08-16T06:02:08.706Z,16.13
2023-08-16T06:04:38.892Z,14.05
2023-08-16T06:07:09.036Z,17.27
2023-08-16T06:09:38.983Z,16.05
2023-08-16T06:12:09.705Z,18.48
2023-08-16T06:14:41.428Z,21.98
2023-08-16T06:17:11.387Z,20.73
2023-08-16T06:19:41.519Z,20.30
2023-08-16T06:22:11.926Z,22.20
2023-08-16T06:24:42.002Z,20.65
2023-08-16T06:27:13.302Z,21.67
2023-08-16T06:29:45.068Z,20.98
2023-08-16T06:32:15.258Z,23.58
2023-08-16T06:34:45.352Z,20.70
2023-08-16T06:37:15.227Z,20.65
2023-08-16T06:39:50.054Z,19.10
2023-08-16T06:42:24.388Z,20.48
2023-08-16T06:45:03.382Z,19.77
2023-08-16T06:47:33.906Z,18.15
2023-08-16T06:50:06.258Z,18.05
2023-08-16T06:52:37.137Z,20.60
2023-08-16T06:55:07.850Z,22.23
2023-08-16T06:57:37.885Z,19.80
2023-08-16T07:00:10.848Z,19.13
2023-08-16T07:02:41.036Z,17.90
2023-08-16T07:05:15.363Z,16.73
2023-08-16T07:07:45.922Z,17.10
2023-08-16T07:10:16.623Z,17.63
2023-08-16T07:12:46.762Z,17.42
2023-08-16T07:15:19.283Z,18.42
2023-08-16T07:17:49.619Z,16.83
2023-08-16T07:20:20.255Z,18.77
2023-08-16T07:22:50.291Z,18.40
2023-08-16T07:25:21.116Z,18.90
2023-08-16T07:27:51.438Z,18.73
2023-08-16T07:30:23.785Z,16.60
2023-08-16T07:32:53.962Z,18.02
2023-08-16T07:35:24.246Z,18.52
2023-08-16T07:37:54.133Z,17.65
2023-08-16T07:40:24.796Z,18.45
2023-08-16T07:43:01.052Z,15.60
2023-08-16T07:45:33.143Z,16.70
2023-08-16T07:48:03.429Z,19.27
2023-08-16T07:50:35.156Z,18.75
2023-08-16T07:53:05.916Z,16.83
2023-08-16T07:55:36.513Z,17.80
2023-08-16T07:58:07.643Z,17.92
2023-08-16T08:00:39.985Z,18.08
2023-08-16T08:03:11.699Z,18.35
2023-08-16T08:05:42.689Z,17.80
2023-08-16T08:08:13.036Z,16.20
2023-08-16T08:10:51.509Z,17.13
2023-08-16T08:13:27.240Z,15.82
2023-08-16T08:16:00.783Z,16.55
2023-08-16T08:18:32.536Z,14.85
2023-08-16T08:21:03.031Z,15.27
2023-08-16T08:23:33.187Z,15.95
2023-08-16T08:26:03.486Z,16.05
2023-08-16T08:28:33.602Z,14.35
2023-08-16T08:31:06.620Z,15.32
2023-08-16T08:33:36.842Z,13.20
2023-08-16T08:36:08.336Z,12.93
2023-08-16T08:38:38.262Z,12.93
2023-08-16T08:41:08.335Z,13.57
2023-08-16T08:43:49.236Z,13.48
2023-08-16T08:46:32.579Z,12.70
2023-08-16T08:49:05.217Z,13.57
2023-08-16T08:51:37.752Z,13.10
2023-08-16T08:54:10.134Z,11.25
2023-08-16T08:56:42.086Z,13.40
2023-08-16T08:59:15.844Z,12.50
2023-08-16T09:01:50.968Z,13.88
2023-08-16T09:04:23.285Z,12.48
2023-08-16T09:06:54.274Z,12.45
2023-08-16T09:09:26.211Z,13.02
2023-08-16T09:11:56.913Z,11.38
2023-08-16T09:14:27.932Z,9.50
2023-08-16T09:17:00.589Z,8.85
2023-08-16T09:19:31.868Z,8.75
2023-08-16T09:22:04.356Z,8.65
2023-08-16T09:24:38.441Z,6.72
2023-08-16T09:27:09.615Z,6.05
2023-08-16T09:29:43.181Z,5.55
2023-08-16T09:32:17.206Z,6.75
2023-08-16T09:34:54.665Z,6.43
2023-08-16T09:37:27.735Z,6.13
2023-08-16T09:40:01.715Z,6.63
2023-08-16T09:42:35.986Z,6.28
2023-08-16T09:45:06.438Z,6.20
2023-08-16T09:50:23.758Z,6.35
2023-08-16T09:52:53.892Z,5.40
2023-08-16T09:55:31.405Z,4.60
2023-08-16T09:58:02.938Z,4.82
2023-08-16T10:00:34.775Z,3.90
2023-08-16T10:03:10.463Z,4.53
2023-08-16T10:08:14.360Z,4.68
2023-08-16T10:10:44.963Z,4.20
2023-08-16T10:13:15.690Z,4.55
2023-08-16T10:15:49.194Z,4.13
2023-08-16T10:18:24.424Z,4.15
2023-08-16T10:20:57.262Z,4.28
2023-08-16T10:23:28.308Z,4.25
2023-08-16T10:26:04.525Z,4.22
2023-08-16T10:28:35.836Z,4.65
2023-08-16T10:33:47.876Z,3.97
2023-08-16T10:36:18.954Z,3.85
2023-08-16T10:38:59.845Z,4.22
2023-08-16T10:41:30.956Z,3.63
2023-08-16T10:44:01.496Z,3.95
2023-08-16T10:46:33.551Z,4.00
2023-08-16T10:49:07.907Z,4.40
2023-08-16T10:51:46.624Z,4.47
2023-08-16T10:54:17.924Z,3.10
2023-08-16T10:56:49.275Z,3.72
2023-08-16T10:59:19.657Z,3.78
2023-08-16T11:01:51.474Z,3.35
2023-08-16T11:04:23.383Z,3.78
2023-08-16T11:07:02.457Z,3.85
2023-08-16T11:09:33.084Z,3.08
2023-08-16T11:12:05.735Z,2.63
2023-08-16T11:14:38.060Z,2.55
2023-08-16T11:17:08.351Z,2.95
2023-08-16T11:19:39.946Z,4.32
2023-08-16T11:22:12.637Z,4.30
2023-08-16T11:24:42.776Z,4.57
2023-08-16T11:27:13.176Z,3.83
2023-08-16T11:29:50.452Z,3.90
2023-08-16T11:32:32.236Z,3.83
2023-08-16T11:35:04.080Z,3.67
2023-08-16T11:37:34.246Z,4.00
2023-08-16T11:40:06.366Z,3.95
2023-08-16T11:42:36.900Z,3.60
2023-08-16T11:45:22.074Z,3.70
2023-08-16T11:47:55.568Z,3.30
2023-08-16T11:50:29.963Z,3.95
2023-08-16T11:53:00.795Z,4.05
2023-08-16T11:55:31.640Z,3.75
2023-08-16T11:58:10.666Z,3.15
2023-08-16T12:00:41.729Z,3.30
2023-08-16T12:03:13.128Z,3.17
2023-08-16T12:05:45.550Z,2.72
2023-08-16T12:08:16.444Z,3.47
2023-08-16T12:10:55.803Z,3.28
2023-08-16T12:13:26.708Z,3.40
2023-08-16T12:15:56.836Z,3.85
2023-08-16T12:18:27.157Z,3.55
2023-08-16T12:20:58.584Z,3.58
2023-08-16T12:23:28.681Z,3.15
2023-08-16T12:25:58.938Z,2.78
2023-08-16T12:28:29.018Z,3.30
2023-08-16T12:30:59.145Z,2.75
2023-08-16T12:33:29.280Z,2.47
2023-08-16T12:36:01.817Z,2.88
2023-08-16T12:38:31.729Z,2.75
2023-08-16T12:41:02.161Z,2.50
2023-08-16T12:43:35.700Z,2.70
2023-08-16T12:46:09.579Z,2.95
2023-08-16T12:48:41.309Z,3.15
2023-08-16T12:53:47.427Z,3.03
2023-08-16T12:56:17.523Z,2.95
2023-08-16T12:58:56.857Z,2.90
2023-08-16T13:01:41.526Z,2.72
2023-08-16T13:04:14.077Z,3.30
2023-08-16T13:11:59.217Z,3.03
2023-08-16T13:17:24.417Z,2.83
2023-08-16T13:20:02.751Z,2.80
2023-08-16T13:22:37.302Z,2.80
2023-08-16T13:27:42.299Z,2.92
2023-08-16T13:30:46.735Z,2.65
2023-08-16T13:33:08.189Z,2.83
2023-08-16T13:38:35.872Z,2.92
2023-08-16T13:43:44.355Z,3.10
2023-08-16T13:46:15.393Z,2.85
2023-08-16T13:48:45.629Z,2.70
2023-08-16T13:51:15.568Z,2.70
2023-08-16T13:53:47.791Z,2.35
2023-08-16T13:56:18.855Z,2.60
2023-08-16T13:58:49.437Z,2.47
2023-08-16T14:01:19.688Z,2.90
2023-08-16T14:03:49.935Z,2.83
2023-08-16T14:06:20.148Z,3.13
2023-08-16T14:08:52.228Z,2.95
2023-08-16T14:11:23.264Z,2.47
2023-08-16T14:13:54.958Z,2.45
2023-08-16T14:16:26.694Z,3.20
2023-08-16T14:18:58.422Z,2.40
2023-08-16T14:21:35.212Z,3.15
2023-08-16T14:24:12.902Z,2.47
2023-08-16T14:26:43.039Z,2.13
2023-08-16T14:29:14.607Z,2.83
2023-08-16T14:31:45.026Z,1.92
2023-08-16T14:34:15.632Z,2.60
2023-08-16T14:36:45.913Z,2.25
2023-08-16T14:39:17.986Z,2.20
2023-08-16T14:41:48.303Z,2.50
2023-08-16T14:44:18.450Z,1.90
2023-08-16T14:46:49.028Z,1.80
2023-08-16T14:49:19.157Z,2.08
2023-08-16T14:51:49.273Z,1.77
2023-08-16T14:54:20.981Z,2.53
2023-08-16T14:56:50.918Z,2.65
2023-08-16T14:59:21.263Z,2.10
2023-08-16T15:01:51.615Z,2.17
2023-08-16T15:04:21.433Z,2.10
2023-08-16T15:06:51.569Z,2.50
2023-08-16T15:09:23.500Z,2.00
2023-08-16T15:11:53.559Z,2.05
2023-08-16T15:14:23.577Z,2.38
2023-08-16T15:16:53.868Z,2.22
2023-08-16T15:19:25.094Z,2.22
2023-08-16T15:21:55.169Z,2.85
2023-08-16T15:24:26.888Z,2.45
2023-08-16T15:26:57.502Z,1.88
2023-08-16T15:29:29.573Z,2.20
2023-08-16T15:32:06.081Z,1.88
2023-08-16T15:34:37.306Z,2.70
2023-08-16T15:37:07.563Z,2.47
2023-08-16T15:39:39.495Z,2.13
2023-08-16T15:42:10.639Z,2.08
2023-08-16T15:44:41.309Z,2.38
2023-08-16T15:47:11.261Z,2.00
2023-08-16T15:49:42.566Z,2.17
2023-08-16T15:52:13.095Z,2.13
2023-08-16T15:54:45.225Z,2.38
2023-08-16T15:57:15.167Z,1.83
2023-08-16T15:59:48.522Z,2.25
2023-08-16T16:02:19.208Z,2.08
2023-08-16T16:04:50.464Z,1.95
2023-08-16T16:07:20.425Z,2.33
2023-08-16T16:09:52.171Z,2.00
2023-08-16T16:12:22.393Z,2.15
2023-08-16T16:14:52.454Z,2.10
2023-08-16T16:17:24.393Z,1.65
2023-08-16T16:19:54.718Z,2.10
2023-08-16T16:22:24.864Z,1.80
2023-08-16T16:24:56.312Z,1.98
2023-08-16T16:27:26.778Z,1.98
2023-08-16T16:29:57.319Z,1.80
2023-08-16T16:32:27.788Z,1.98
2023-08-16T16:34:59.010Z,1.98
2023-08-16T16:37:29.045Z,1.80
2023-08-16T16:40:00.663Z,2.03
2023-08-16T16:42:30.695Z,1.70
2023-08-16T16:45:00.949Z,1.85
2023-08-16T16:47:30.979Z,1.85
2023-08-16T16:50:01.040Z,1.90
2023-08-16T16:52:31.256Z,2.10
2023-08-16T16:55:02.933Z,2.08
2023-08-16T16:57:34.122Z,2.60
2023-08-16T17:00:07.856Z,2.20
2023-08-16T17:02:37.966Z,1.90
2023-08-16T17:05:08.050Z,2.00
2023-08-16T17:07:38.078Z,1.80
2023-08-16T17:10:11.176Z,2.30
2023-08-16T17:12:41.584Z,1.52
2023-08-16T17:15:12.838Z,2.17
2023-08-16T17:17:43.008Z,1.90
2023-08-16T17:20:13.710Z,1.90
2023-08-16T17:22:43.972Z,1.80
2023-08-16T17:25:16.351Z,1.55
2023-08-16T17:27:46.588Z,1.90
2023-08-16T17:30:17.194Z,2.13
2023-08-16T17:32:47.488Z,2.05
2023-08-16T17:35:17.847Z,2.70
2023-08-16T17:37:47.800Z,1.80
2023-08-16T17:40:20.005Z,2.20
2023-08-16T17:42:49.987Z,2.33
2023-08-16T17:45:20.450Z,1.88
2023-08-16T17:47:50.443Z,2.22
2023-08-16T17:50:20.903Z,2.75
2023-08-16T17:52:51.068Z,2.25
2023-08-16T17:55:22.988Z,2.13
2023-08-16T17:57:53.327Z,2.38
2023-08-16T18:00:23.939Z,2.55
2023-08-16T18:02:54.129Z,2.22
2023-08-16T18:05:24.546Z,2.15
2023-08-16T18:07:54.617Z,1.98
2023-08-16T18:14:40.511Z,4.95
2023-08-16T18:17:10.559Z,4.03
2023-08-16T18:19:40.823Z,4.53
2023-08-16T18:22:10.792Z,4.07
2023-08-16T18:24:40.870Z,5.25
2023-08-16T18:30:59.643Z,4.93
2023-08-16T18:33:29.575Z,3.78
2023-08-16T18:35:59.678Z,3.45
2023-08-16T18:38:29.748Z,2.30
2023-08-16T18:41:03.280Z,3.05
2023-08-16T18:43:33.307Z,3.72
2023-08-16T18:46:05.177Z,2.45
2023-08-16T18:48:35.233Z,2.30
2023-08-16T18:51:05.801Z,2.28
2023-08-16T18:53:39.534Z,0.98
2023-08-16T18:56:09.728Z,1.27
2023-08-16T18:58:39.617Z,0.88
2023-08-16T19:04:58.122Z,2.05
2023-08-16T19:07:28.337Z,1.23
2023-08-16T19:09:58.588Z,1.58
2023-08-16T19:12:28.811Z,1.65
2023-08-16T19:14:58.698Z,1.30
2023-08-16T19:17:30.021Z,1.33
2023-08-16T19:20:01.788Z,0.93
2023-08-16T19:22:32.666Z,0.52
2023-08-16T19:25:02.700Z,1.30
2023-08-16T19:27:33.039Z,0.80
2023-08-16T19:30:05.288Z,0.52
2023-08-16T19:32:35.405Z,0.90
2023-08-16T19:35:07.075Z,0.90
2023-08-16T19:37:37.094Z,1.23
2023-08-16T19:40:08.417Z,0.65
2023-08-16T19:42:38.566Z,0.60
2023-08-16T19:45:11.414Z,0.73
2023-08-16T19:47:41.588Z,0.98
2023-08-16T19:50:32.681Z,1.02
2023-08-16T19:53:02.813Z,0.88
2023-08-16T19:55:32.940Z,0.57
2023-08-16T19:58:02.853Z,1.00
2023-08-16T20:00:33.500Z,0.63
2023-08-16T20:03:03.970Z,0.73
2023-08-16T20:05:35.684Z,0.70
2023-08-16T20:08:05.831Z,1.05
2023-08-16T20:10:36.411Z,0.93
2023-08-16T20:13:06.812Z,0.98
2023-08-16T20:15:36.991Z,0.80
2023-08-16T20:18:07.373Z,0.75
2023-08-16T20:20:38.980Z,0.90
2023-08-16T20:23:10.780Z,0.95
2023-08-16T20:25:40.791Z,0.93
2023-08-16T20:28:11.776Z,0.70
2023-08-16T20:30:41.946Z,0.65
2023-08-16T20:33:12.051Z,0.73
2023-08-16T20:35:43.595Z,1.02
2023-08-16T20:38:13.796Z,0.82
2023-08-16T20:40:43.820Z,0.65
2023-08-16T20:43:13.845Z,0.85
2023-08-16T20:45:43.740Z,0.70
2023-08-16T20:48:13.797Z,0.90
2023-08-16T20:50:45.257Z,1.08
2023-08-16T20:53:15.587Z,0.95
2023-08-16T20:55:45.547Z,1.02
2023-08-16T20:58:15.888Z,1.10
2023-08-16T21:00:46.047Z,1.10
2023-08-16T21:03:16.337Z,1.10
2023-08-16T21:05:47.660Z,1.02
2023-08-16T21:08:18.109Z,0.80
2023-08-16T21:10:48.252Z,1.02
2023-08-16T21:13:19.932Z,1.23
2023-08-16T21:15:50.210Z,1.05
2023-08-16T21:18:20.253Z,0.70
2023-08-16T21:20:51.749Z,0.73
2023-08-16T21:23:22.114Z,0.70
2023-08-16T21:25:54.712Z,0.88
2023-08-16T21:28:24.919Z,0.80
2023-08-16T21:30:55.127Z,1.30
2023-08-16T21:33:25.177Z,0.80
2023-08-16T21:35:57.957Z,1.05
2023-08-16T21:38:28.005Z,0.73
2023-08-16T21:41:00.598Z,1.20
2023-08-16T21:43:31.244Z,0.80
2023-08-16T21:46:01.437Z,1.45
2023-08-16T21:48:31.664Z,0.93
2023-08-16T21:51:03.452Z,0.77
2023-08-16T21:53:33.644Z,0.75
2023-08-16T21:56:09.080Z,0.88
2023-08-16T21:58:39.434Z,1.00
2023-08-16T22:01:09.530Z,0.95
2023-08-16T22:03:39.736Z,1.02
2023-08-16T22:06:11.598Z,1.00
2023-08-16T22:08:43.596Z,1.13
2023-08-16T22:11:13.681Z,0.80
2023-08-16T22:13:44.442Z,1.08
2023-08-16T22:16:14.699Z,1.17
2023-08-16T22:18:45.023Z,1.08
2023-08-16T22:21:17.882Z,1.13
2023-08-16T22:23:48.142Z,1.30
2023-08-16T22:26:18.225Z,1.25
2023-08-16T22:28:57.363Z,0.90
2023-08-16T22:31:29.675Z,1.15
2023-08-16T22:34:01.207Z,1.25
2023-08-16T22:36:32.873Z,1.40
2023-08-16T22:39:02.930Z,0.75
2023-08-16T22:41:33.883Z,0.82
2023-08-16T22:44:03.928Z,1.25
2023-08-16T22:46:34.636Z,1.40
2023-08-16T22:49:04.843Z,1.02
2023-08-16T22:51:36.935Z,1.13
2023-08-16T22:54:07.108Z,1.92
2023-08-16T22:56:37.437Z,0.82
2023-08-16T22:59:07.460Z,1.65
2023-08-16T23:01:37.587Z,0.90
2023-08-16T23:04:07.862Z,1.30
2023-08-16T23:06:39.867Z,1.40
2023-08-16T23:09:10.761Z,1.60
2023-08-16T23:11:40.826Z,2.15
2023-08-16T23:14:10.740Z,1.52
2023-08-16T23:16:40.913Z,1.48
2023-08-16T23:19:10.909Z,2.00
2023-08-16T23:21:42.445Z,1.88
2023-08-16T23:24:13.145Z,1.50
2023-08-16T23:26:43.197Z,1.70
2023-08-16T23:29:13.399Z,1.55
2023-08-16T23:31:43.656Z,1.77
2023-08-16T23:34:13.737Z,1.63
2023-08-16T23:36:45.409Z,1.42
2023-08-16T23:39:15.492Z,1.40
2023-08-16T23:41:45.402Z,1.17
2023-08-16T23:44:15.487Z,1.23
2023-08-16T23:46:45.547Z,1.27
2023-08-16T23:49:15.596Z,1.88
2023-08-16T23:51:47.386Z,1.80
2023-08-16T23:54:17.247Z,1.38
2023-08-16T23:56:48.728Z,1.73
2023-08-16T23:59:18.643Z,1.48
